createdAt,value
2019-03-19T00:00:08.131Z,2.93
2019-03-19T00:02:37.505Z,2.90
2019-03-19T00:05:07.106Z,3.13
2019-03-19T00:07:36.430Z,2.93
2019-03-19T00:10:06.446Z,3.57
2019-03-19T00:12:35.773Z,3.30
2019-03-19T00:15:05.838Z,3.20
2019-03-19T00:17:35.159Z,3.20
2019-03-19T00:20:05.706Z,3.13
2019-03-19T00:22:34.970Z,3.50
2019-03-19T00:25:04.424Z,3.33
2019-03-19T00:27:33.723Z,3.30
2019-03-19T00:30:02.977Z,3.23
2019-03-19T00:32:32.448Z,2.67
2019-03-19T00:35:02.048Z,3.80
2019-03-19T00:37:31.387Z,2.97
2019-03-19T00:40:00.653Z,2.67
2019-03-19T00:42:29.960Z,3.07
2019-03-19T00:44:59.300Z,2.40
2019-03-19T00:47:28.546Z,2.53
2019-03-19T00:49:57.911Z,2.80
2019-03-19T00:52:27.394Z,2.70
2019-03-19T00:54:56.634Z,2.70
2019-03-19T00:57:25.934Z,2.87
2019-03-19T00:59:55.185Z,2.87
2019-03-19T01:02:24.495Z,2.90
2019-03-19T01:04:53.764Z,3.07
2019-03-19T01:07:22.993Z,2.53
2019-03-19T01:09:52.277Z,2.57
2019-03-19T01:12:21.586Z,3.17
2019-03-19T01:14:50.830Z,3.17
2019-03-19T01:17:20.042Z,2.47
2019-03-19T01:19:49.345Z,2.40
2019-03-19T01:22:18.727Z,2.60
2019-03-19T01:24:48.150Z,2.63
2019-03-19T01:27:17.449Z,2.63
2019-03-19T01:29:47.233Z,2.43
2019-03-19T01:32:16.598Z,2.37
2019-03-19T01:34:46.037Z,2.93
2019-03-19T01:37:15.279Z,2.90
2019-03-19T01:39:44.753Z,3.10
2019-03-19T01:42:13.945Z,2.50
2019-03-19T01:44:43.248Z,2.33
2019-03-19T01:47:12.686Z,2.33
2019-03-19T01:49:41.867Z,2.20
2019-03-19T01:52:11.090Z,2.70
2019-03-19T01:54:40.483Z,2.33
2019-03-19T01:57:09.779Z,2.43
2019-03-19T01:59:39.031Z,2.10
2019-03-19T02:02:08.290Z,2.20
2019-03-19T02:04:37.540Z,1.90
2019-03-19T02:07:06.820Z,2.50
2019-03-19T02:09:36.070Z,2.30
2019-03-19T02:12:05.629Z,2.47
2019-03-19T02:14:34.898Z,2.20
2019-03-19T02:17:04.130Z,2.40
2019-03-19T02:19:33.386Z,2.20
2019-03-19T02:22:02.661Z,2.00
2019-03-19T02:24:31.897Z,2.07
2019-03-19T02:27:01.072Z,2.53
2019-03-19T02:29:30.356Z,2.27
2019-03-19T02:31:59.696Z,1.90
2019-03-19T02:34:29.023Z,2.17
2019-03-19T02:36:58.675Z,2.20
2019-03-19T02:39:28.246Z,2.13
2019-03-19T02:41:57.536Z,2.30
2019-03-19T02:44:26.893Z,2.33
2019-03-19T02:46:56.358Z,2.90
2019-03-19T02:49:25.744Z,1.87
2019-03-19T02:51:54.984Z,2.50
2019-03-19T02:54:24.242Z,3.07
2019-03-19T02:56:53.605Z,2.50
2019-03-19T02:59:22.919Z,1.97
2019-03-19T03:01:52.277Z,2.63
2019-03-19T03:04:21.851Z,2.07
2019-03-19T03:06:51.205Z,2.57
2019-03-19T03:09:20.467Z,2.23
2019-03-19T03:11:49.867Z,2.63
2019-03-19T03:14:19.114Z,2.70
2019-03-19T03:16:48.513Z,3.17
2019-03-19T03:19:17.815Z,2.90
2019-03-19T03:21:47.128Z,2.70
2019-03-19T03:24:16.386Z,2.83
2019-03-19T03:26:48.462Z,2.53
2019-03-19T03:29:16.766Z,2.80
2019-03-19T03:31:45.973Z,2.17
2019-03-19T03:34:15.457Z,2.37
2019-03-19T03:36:49.693Z,2.10
2019-03-19T03:39:18.950Z,2.13
2019-03-19T03:41:48.178Z,2.60
2019-03-19T03:44:17.791Z,2.20
2019-03-19T03:46:47.059Z,2.10
2019-03-19T03:49:16.398Z,2.10
2019-03-19T03:51:45.722Z,2.17
2019-03-19T03:54:15.056Z,2.27
2019-03-19T03:56:44.296Z,2.30
2019-03-19T03:59:13.556Z,2.60
2019-03-19T04:01:42.958Z,2.57
2019-03-19T04:04:12.209Z,2.50
2019-03-19T04:06:41.474Z,2.70
2019-03-19T04:09:10.917Z,2.13
2019-03-19T04:11:40.184Z,2.33
2019-03-19T04:14:09.499Z,2.20
2019-03-19T04:16:38.719Z,2.07
2019-03-19T04:19:07.975Z,2.30
2019-03-19T04:21:37.555Z,2.33
2019-03-19T04:24:07.166Z,2.37
2019-03-19T04:26:36.429Z,2.27
2019-03-19T04:29:05.691Z,3.57
2019-03-19T04:31:35.490Z,4.43
2019-03-19T04:34:04.810Z,2.33
2019-03-19T04:36:34.305Z,2.40
2019-03-19T04:39:05.106Z,1.80
2019-03-19T04:41:34.345Z,2.20
2019-03-19T04:44:03.637Z,2.07
2019-03-19T04:46:32.990Z,2.47
2019-03-19T04:49:02.246Z,3.60
2019-03-19T04:51:31.513Z,2.80
2019-03-19T04:54:01.051Z,2.83
2019-03-19T04:56:30.318Z,2.77
2019-03-19T04:58:59.587Z,2.10
2019-03-19T05:01:28.902Z,2.40
2019-03-19T05:03:58.130Z,1.80
2019-03-19T05:06:27.372Z,1.80
2019-03-19T05:08:56.632Z,2.47
2019-03-19T05:11:25.935Z,2.20
2019-03-19T05:13:55.270Z,2.20
2019-03-19T05:16:24.845Z,2.40
2019-03-19T05:18:54.095Z,2.57
2019-03-19T05:21:23.341Z,2.47
2019-03-19T05:23:52.591Z,2.43
2019-03-19T05:26:22.037Z,2.20
2019-03-19T05:28:51.647Z,2.23
2019-03-19T05:31:23.962Z,2.40
2019-03-19T05:33:53.216Z,2.57
2019-03-19T05:36:22.488Z,3.00
2019-03-19T05:38:51.747Z,2.80
2019-03-19T05:41:20.981Z,2.53
2019-03-19T05:43:50.276Z,2.80
2019-03-19T05:46:19.514Z,2.13
2019-03-19T05:48:48.783Z,2.30
2019-03-19T05:51:37.038Z,2.87
2019-03-19T05:54:06.359Z,2.23
2019-03-19T05:56:35.737Z,2.27
2019-03-19T05:59:05.050Z,2.27
2019-03-19T06:01:34.303Z,2.40
2019-03-19T06:04:04.165Z,2.80
2019-03-19T06:06:33.502Z,2.33
2019-03-19T06:09:02.870Z,2.87
2019-03-19T06:11:32.133Z,3.30
2019-03-19T06:14:01.415Z,3.03
2019-03-19T06:16:30.709Z,3.43
2019-03-19T06:18:59.971Z,2.47
2019-03-19T06:21:29.362Z,3.13
2019-03-19T06:24:01.202Z,3.43
2019-03-19T06:26:30.477Z,2.70
2019-03-19T06:28:59.739Z,2.80
2019-03-19T06:31:29.023Z,3.07
2019-03-19T06:33:58.635Z,2.70
2019-03-19T06:36:27.806Z,3.37
2019-03-19T06:38:57.306Z,2.80
2019-03-19T06:41:26.886Z,3.37
2019-03-19T06:43:56.179Z,3.00
2019-03-19T06:46:25.506Z,3.60
2019-03-19T06:48:54.754Z,3.00
2019-03-19T06:51:24.029Z,2.97
2019-03-19T06:53:53.335Z,3.53
2019-03-19T06:56:22.638Z,3.90
2019-03-19T06:58:51.906Z,4.13
2019-03-19T07:01:21.234Z,4.37
2019-03-19T07:03:50.586Z,3.63
2019-03-19T07:06:20.059Z,4.50
2019-03-19T07:08:49.454Z,3.67
2019-03-19T07:11:18.705Z,3.93
2019-03-19T07:13:48.158Z,4.80
2019-03-19T07:16:17.588Z,4.37
2019-03-19T07:18:46.959Z,3.80
2019-03-19T07:21:16.218Z,3.23
2019-03-19T07:23:45.507Z,3.63
2019-03-19T07:26:14.741Z,3.20
2019-03-19T07:28:43.997Z,3.60
2019-03-19T07:31:13.392Z,3.70
2019-03-19T07:33:42.719Z,2.93
2019-03-19T07:36:12.019Z,3.00
2019-03-19T07:38:41.419Z,2.40
2019-03-19T07:41:10.725Z,2.73
2019-03-19T07:43:40.276Z,2.97
2019-03-19T07:46:09.736Z,2.83
2019-03-19T07:48:39.000Z,3.33
2019-03-19T07:51:08.163Z,3.03
2019-03-19T07:53:37.435Z,2.70
2019-03-19T07:56:06.691Z,2.03
2019-03-19T07:58:44.771Z,2.97
2019-03-19T08:01:06.935Z,2.60
2019-03-19T08:03:36.162Z,2.70
2019-03-19T08:06:05.527Z,2.93
2019-03-19T08:08:34.830Z,2.80
2019-03-19T08:11:04.094Z,2.57
2019-03-19T08:13:33.445Z,2.00
2019-03-19T08:16:02.755Z,2.20
2019-03-19T08:18:31.939Z,2.67
2019-03-19T08:21:01.278Z,2.23
2019-03-19T08:23:30.566Z,2.70
2019-03-19T08:25:59.889Z,2.53
2019-03-19T08:28:29.200Z,2.00
2019-03-19T08:30:58.484Z,2.23
2019-03-19T08:33:27.869Z,2.43
2019-03-19T08:36:08.915Z,2.93
2019-03-19T08:38:31.118Z,2.50
2019-03-19T08:41:00.390Z,2.80
2019-03-19T08:43:29.677Z,2.67
2019-03-19T08:45:58.995Z,2.60
2019-03-19T08:48:28.347Z,2.10
2019-03-19T08:50:57.699Z,2.40
2019-03-19T08:53:27.070Z,2.93
2019-03-19T08:55:56.363Z,2.90
2019-03-19T08:58:25.540Z,2.63
2019-03-19T09:00:54.812Z,2.30
2019-03-19T09:03:24.062Z,2.20
2019-03-19T09:05:53.343Z,2.10
2019-03-19T09:08:22.871Z,2.60
2019-03-19T09:10:52.173Z,2.30
2019-03-19T09:13:21.500Z,2.10
2019-03-19T09:15:50.766Z,2.93
2019-03-19T09:18:20.071Z,3.00
2019-03-19T09:20:49.258Z,2.67
2019-03-19T09:23:18.734Z,2.70
2019-03-19T09:25:48.004Z,2.27
2019-03-19T09:28:17.261Z,2.43
2019-03-19T09:30:46.542Z,2.57
2019-03-19T09:33:16.210Z,3.47
2019-03-19T09:35:45.478Z,2.50
2019-03-19T09:38:14.768Z,3.00
2019-03-19T09:40:44.313Z,2.50
2019-03-19T09:43:13.583Z,2.77
2019-03-19T09:45:42.879Z,2.87
2019-03-19T09:48:12.413Z,2.63
2019-03-19T09:50:41.659Z,3.37
2019-03-19T09:53:11.219Z,2.90
2019-03-19T09:55:40.538Z,3.00
2019-03-19T09:58:09.924Z,3.27
2019-03-19T10:00:39.137Z,3.30
2019-03-19T10:03:08.499Z,3.83
2019-03-19T10:05:37.769Z,4.27
2019-03-19T10:08:07.117Z,4.40
2019-03-19T10:10:37.485Z,4.90
2019-03-19T10:13:07.137Z,4.00
2019-03-19T10:15:36.634Z,4.70
2019-03-19T10:18:06.157Z,3.80
2019-03-19T10:20:35.819Z,5.10
2019-03-19T10:23:05.174Z,4.57
2019-03-19T10:25:34.797Z,3.63
2019-03-19T10:28:04.228Z,3.20
2019-03-19T10:30:33.683Z,4.80
2019-03-19T10:33:02.954Z,3.70
2019-03-19T10:35:32.465Z,4.47
2019-03-19T10:38:01.766Z,3.43
2019-03-19T10:40:33.791Z,3.37
2019-03-19T10:43:03.236Z,3.17
2019-03-19T10:45:32.647Z,5.03
2019-03-19T10:48:02.008Z,4.37
2019-03-19T10:50:31.550Z,3.20
2019-03-19T10:53:00.754Z,2.70
2019-03-19T10:55:30.099Z,2.83
2019-03-19T10:58:10.378Z,2.97
2019-03-19T11:00:30.714Z,3.30
2019-03-19T11:03:00.419Z,3.50
2019-03-19T11:05:29.721Z,2.80
2019-03-19T11:07:59.155Z,4.93
2019-03-19T11:10:28.602Z,3.00
2019-03-19T11:12:57.869Z,3.70
2019-03-19T11:15:31.601Z,3.83
2019-03-19T11:18:07.121Z,3.10
2019-03-19T11:20:36.317Z,4.10
2019-03-19T11:23:05.636Z,4.50
2019-03-19T11:25:34.903Z,3.17
2019-03-19T11:28:07.132Z,5.17
2019-03-19T11:30:39.171Z,3.67
2019-03-19T11:33:11.680Z,3.10
2019-03-19T11:36:02.149Z,3.60
2019-03-19T11:38:34.787Z,4.87
2019-03-19T11:41:07.403Z,4.13
2019-03-19T11:43:39.856Z,4.73
2019-03-19T11:46:11.949Z,3.57
2019-03-19T11:48:41.336Z,4.33
2019-03-19T11:51:10.710Z,4.50
2019-03-19T11:53:40.016Z,4.60
2019-03-19T11:56:09.306Z,5.20
2019-03-19T11:58:38.602Z,5.23
2019-03-19T12:01:08.184Z,5.53
2019-03-19T12:03:37.488Z,5.20
2019-03-19T12:06:06.792Z,4.63
2019-03-19T12:08:35.978Z,4.80
2019-03-19T12:11:05.423Z,5.20
2019-03-19T12:13:34.718Z,4.67
2019-03-19T12:16:03.992Z,5.67
2019-03-19T12:18:33.338Z,5.83
2019-03-19T12:21:02.626Z,5.80
2019-03-19T12:23:31.879Z,4.87
2019-03-19T12:26:01.120Z,5.17
2019-03-19T12:28:39.287Z,4.03
2019-03-19T12:31:01.607Z,3.87
2019-03-19T12:33:40.531Z,4.07
2019-03-19T12:36:01.804Z,4.20
2019-03-19T12:38:31.230Z,3.30
2019-03-19T12:41:00.626Z,4.40
2019-03-19T12:43:45.331Z,4.53
2019-03-19T12:46:14.639Z,5.07
2019-03-19T12:48:44.091Z,6.40
2019-03-19T12:51:13.384Z,7.33
2019-03-19T12:53:42.666Z,7.83
2019-03-19T12:56:11.860Z,8.00
2019-03-19T12:58:41.118Z,8.90
2019-03-19T13:01:10.438Z,9.63
2019-03-19T13:03:41.458Z,9.30
2019-03-19T13:06:10.723Z,9.23
2019-03-19T13:08:40.060Z,9.77
2019-03-19T13:11:12.563Z,7.00
2019-03-19T13:13:43.615Z,9.40
2019-03-19T13:16:12.866Z,9.50
2019-03-19T13:18:42.053Z,9.17
2019-03-19T13:21:11.405Z,10.37
2019-03-19T13:23:40.663Z,9.83
2019-03-19T13:26:09.914Z,10.27
2019-03-19T13:28:39.190Z,9.50
2019-03-19T13:31:08.539Z,9.80
2019-03-19T13:33:37.802Z,9.30
2019-03-19T13:36:07.238Z,10.03
2019-03-19T13:38:36.432Z,10.07
2019-03-19T13:41:05.994Z,10.27
2019-03-19T13:43:35.309Z,10.10
2019-03-19T13:46:04.744Z,8.93
2019-03-19T13:48:34.071Z,9.33
2019-03-19T13:51:03.430Z,10.43
2019-03-19T13:53:32.848Z,8.90
2019-03-19T13:56:02.046Z,7.63
2019-03-19T13:58:32.297Z,8.30
2019-03-19T14:01:02.013Z,7.93
2019-03-19T14:03:31.472Z,6.58
2019-03-19T14:06:00.802Z,4.10
2019-03-19T14:08:30.263Z,4.00
2019-03-19T14:10:59.523Z,4.00
2019-03-19T14:13:29.054Z,3.37
2019-03-19T14:15:58.322Z,3.93
2019-03-19T14:18:27.572Z,4.43
2019-03-19T14:20:56.870Z,4.47
2019-03-19T14:23:26.112Z,4.10
2019-03-19T14:26:14.532Z,3.43
2019-03-19T14:28:43.848Z,3.07
2019-03-19T14:31:13.201Z,3.00
2019-03-19T14:33:42.469Z,3.23
2019-03-19T14:36:11.838Z,3.67
2019-03-19T14:38:47.072Z,3.03
2019-03-19T14:41:12.105Z,2.97
2019-03-19T14:43:41.378Z,2.50
2019-03-19T14:46:10.717Z,2.80
2019-03-19T14:48:40.080Z,2.77
2019-03-19T14:51:09.338Z,2.63
2019-03-19T14:53:38.606Z,3.27
2019-03-19T14:56:07.980Z,3.23
2019-03-19T14:58:37.316Z,3.17
2019-03-19T15:01:06.774Z,2.97
2019-03-19T15:03:36.617Z,3.10
2019-03-19T15:06:06.232Z,3.10
2019-03-19T15:08:36.660Z,2.53
2019-03-19T15:11:06.649Z,2.43
2019-03-19T15:13:35.919Z,2.97
2019-03-19T15:16:05.614Z,2.53
2019-03-19T15:18:34.952Z,3.17
2019-03-19T15:21:04.386Z,3.00
2019-03-19T15:23:33.778Z,3.50
2019-03-19T15:26:03.059Z,2.17
2019-03-19T15:28:32.443Z,2.43
2019-03-19T15:31:01.679Z,3.00
2019-03-19T15:33:30.950Z,2.53
2019-03-19T15:36:00.270Z,2.53
2019-03-19T15:38:29.825Z,2.90
2019-03-19T15:40:59.407Z,2.93
2019-03-19T15:43:28.766Z,2.80
2019-03-19T15:45:58.149Z,2.60
2019-03-19T15:48:27.452Z,2.50
2019-03-19T15:50:56.805Z,2.33
2019-03-19T15:53:26.100Z,2.73
2019-03-19T15:55:55.561Z,2.67
2019-03-19T15:58:34.025Z,2.43
2019-03-19T16:01:03.331Z,1.77
2019-03-19T16:03:32.611Z,2.30
2019-03-19T16:06:01.909Z,2.93
2019-03-19T16:08:31.322Z,3.00
2019-03-19T16:11:00.823Z,3.47
2019-03-19T16:13:30.962Z,3.20
2019-03-19T16:16:00.224Z,1.87
2019-03-19T16:18:29.609Z,2.87
2019-03-19T16:20:59.012Z,2.87
2019-03-19T16:23:28.572Z,4.40
2019-03-19T16:25:57.975Z,3.60
2019-03-19T16:28:27.607Z,2.73
2019-03-19T16:30:57.016Z,3.20
2019-03-19T16:33:26.316Z,4.23
2019-03-19T16:35:55.634Z,4.60
2019-03-19T16:38:24.908Z,4.30
2019-03-19T16:40:54.259Z,3.33
2019-03-19T16:43:23.912Z,3.90
2019-03-19T16:45:53.218Z,4.73
2019-03-19T16:48:22.539Z,4.67
2019-03-19T16:50:51.887Z,3.97
2019-03-19T16:53:21.411Z,3.97
2019-03-19T16:55:50.652Z,4.37
2019-03-19T16:58:19.958Z,3.90
2019-03-19T17:00:49.250Z,4.10
2019-03-19T17:03:18.525Z,3.83
2019-03-19T17:05:47.849Z,4.43
2019-03-19T17:08:17.152Z,4.57
2019-03-19T17:10:46.440Z,4.80
2019-03-19T17:13:15.690Z,4.17
2019-03-19T17:15:45.380Z,4.70
2019-03-19T17:18:15.003Z,4.50
2019-03-19T17:23:22.596Z,3.93
2019-03-19T17:25:53.646Z,4.17
2019-03-19T17:28:23.020Z,4.40
2019-03-19T17:30:52.276Z,4.30
2019-03-19T17:33:21.586Z,4.73
2019-03-19T17:35:51.037Z,3.90
2019-03-19T17:38:20.355Z,4.12
2019-03-19T17:40:49.689Z,4.57
2019-03-19T17:43:18.943Z,4.23
2019-03-19T17:45:48.314Z,4.50
2019-03-19T17:48:17.615Z,4.13
2019-03-19T17:50:47.886Z,4.43
2019-03-19T17:53:17.167Z,4.47
2019-03-19T17:55:46.435Z,4.80
2019-03-19T17:58:15.829Z,4.73
2019-03-19T18:00:46.864Z,4.33
2019-03-19T18:03:16.163Z,5.30
2019-03-19T18:05:45.419Z,5.40
2019-03-19T18:08:14.690Z,4.50
2019-03-19T18:10:44.004Z,4.60
2019-03-19T18:13:13.452Z,5.17
2019-03-19T18:15:42.792Z,6.50
2019-03-19T18:18:12.086Z,6.07
2019-03-19T18:20:41.655Z,6.27
2019-03-19T18:23:10.989Z,5.83
2019-03-19T18:25:40.732Z,5.67
2019-03-19T18:28:10.201Z,5.17
2019-03-19T18:30:39.535Z,5.73
2019-03-19T18:33:08.998Z,5.60
2019-03-19T18:35:38.282Z,6.03
2019-03-19T18:38:07.544Z,6.03
2019-03-19T18:40:37.253Z,6.70
2019-03-19T18:43:06.707Z,6.50
2019-03-19T18:45:36.228Z,5.83
2019-03-19T18:48:06.015Z,6.07
2019-03-19T18:50:35.314Z,6.03
2019-03-19T18:53:04.561Z,6.20
2019-03-19T18:55:34.043Z,6.80
2019-03-19T18:58:03.637Z,5.50
2019-03-19T19:00:33.016Z,6.93
2019-03-19T19:03:02.515Z,6.60
2019-03-19T19:05:31.812Z,6.67
2019-03-19T19:08:01.608Z,7.27
2019-03-19T19:10:31.027Z,6.67
2019-03-19T19:13:00.711Z,8.10
2019-03-19T19:15:29.984Z,13.20
2019-03-19T19:17:59.487Z,12.93
2019-03-19T19:20:28.787Z,9.13
2019-03-19T19:22:58.159Z,6.93
2019-03-19T19:25:27.691Z,7.73
2019-03-19T19:27:57.025Z,7.27
2019-03-19T19:30:26.406Z,8.13
2019-03-19T19:33:01.369Z,8.27
2019-03-19T19:35:26.895Z,8.70
2019-03-19T19:37:56.162Z,8.80
2019-03-19T19:40:25.461Z,8.90
2019-03-19T19:42:54.977Z,8.93
2019-03-19T19:45:24.311Z,9.10
2019-03-19T19:47:53.642Z,8.40
2019-03-19T19:50:22.915Z,9.23
2019-03-19T19:52:52.313Z,8.77
2019-03-19T19:55:21.604Z,9.10
2019-03-19T19:57:50.983Z,9.57
2019-03-19T20:00:20.675Z,11.00
2019-03-19T20:02:50.090Z,10.57
2019-03-19T20:05:19.578Z,9.17
2019-03-19T20:07:48.833Z,10.17
2019-03-19T20:10:18.655Z,11.20
2019-03-19T20:12:48.150Z,9.77
2019-03-19T20:15:17.481Z,9.67
2019-03-19T20:17:46.876Z,10.17
2019-03-19T20:20:17.415Z,10.27
2019-03-19T20:22:46.942Z,9.27
2019-03-19T20:25:16.417Z,10.07
2019-03-19T20:27:46.122Z,10.17
2019-03-19T20:30:19.489Z,10.43
2019-03-19T20:32:49.039Z,9.57
2019-03-19T20:35:18.638Z,9.90
2019-03-19T20:37:47.932Z,9.57
2019-03-19T20:40:17.422Z,11.23
2019-03-19T20:42:46.810Z,10.53
2019-03-19T20:45:16.466Z,9.77
2019-03-19T20:47:45.825Z,10.47
2019-03-19T20:50:17.876Z,9.13
2019-03-19T20:52:47.433Z,11.13
2019-03-19T20:55:16.860Z,10.47
2019-03-19T20:57:46.289Z,10.37
2019-03-19T21:00:16.619Z,10.90
2019-03-19T21:02:45.885Z,11.00
2019-03-19T21:05:15.772Z,10.43
2019-03-19T21:07:45.116Z,10.17
2019-03-19T21:10:16.922Z,9.83
2019-03-19T21:12:46.343Z,10.30
2019-03-19T21:15:21.215Z,10.57
2019-03-19T21:17:50.506Z,10.23
2019-03-19T21:20:19.792Z,11.27
2019-03-19T21:22:49.520Z,12.27
2019-03-19T21:25:21.660Z,11.27
2019-03-19T21:27:51.254Z,11.47
2019-03-19T21:30:20.965Z,10.93
2019-03-19T21:32:50.673Z,10.83
2019-03-19T21:35:23.085Z,10.90
2019-03-19T21:37:52.455Z,11.17
2019-03-19T21:40:22.229Z,11.33
2019-03-19T21:42:51.546Z,13.57
2019-03-19T21:45:21.174Z,11.93
2019-03-19T21:47:50.538Z,11.50
2019-03-19T21:50:23.329Z,12.30
2019-03-19T21:52:52.752Z,12.37
2019-03-19T21:55:22.534Z,12.30
2019-03-19T21:57:51.856Z,13.20
2019-03-19T22:00:21.258Z,12.63
2019-03-19T22:02:50.539Z,13.27
2019-03-19T22:05:20.170Z,11.53
2019-03-19T22:07:49.749Z,9.20
2019-03-19T22:10:19.328Z,11.93
2019-03-19T22:12:49.532Z,11.40
2019-03-19T22:15:19.490Z,11.73
2019-03-19T22:17:49.061Z,10.93
2019-03-19T22:20:19.336Z,11.53
2019-03-19T22:22:48.745Z,12.27
2019-03-19T22:25:18.111Z,12.17
2019-03-19T22:27:48.456Z,12.13
2019-03-19T22:30:17.917Z,12.07
2019-03-19T22:32:47.177Z,10.57
2019-03-19T22:35:16.458Z,11.23
2019-03-19T22:37:45.923Z,11.07
2019-03-19T22:40:15.835Z,10.63
2019-03-19T22:42:45.412Z,10.43
2019-03-19T22:45:15.167Z,10.43
2019-03-19T22:47:44.448Z,11.00
2019-03-19T22:50:14.422Z,10.27
2019-03-19T22:52:44.050Z,13.33
2019-03-19T22:55:13.377Z,12.10
2019-03-19T22:57:42.843Z,11.23
2019-03-19T23:00:17.675Z,10.97
2019-03-19T23:02:46.953Z,11.07
2019-03-19T23:05:16.219Z,11.23
2019-03-19T23:07:45.778Z,10.47
2019-03-19T23:10:15.387Z,10.77
2019-03-19T23:12:44.630Z,10.80
2019-03-19T23:15:15.409Z,11.30
2019-03-19T23:17:44.748Z,11.73
2019-03-19T23:20:14.807Z,10.80
2019-03-19T23:22:44.101Z,11.80
2019-03-19T23:25:13.994Z,11.10
2019-03-19T23:27:43.586Z,11.70
2019-03-19T23:30:13.192Z,10.70
2019-03-19T23:32:42.515Z,11.97
2019-03-19T23:35:12.525Z,11.23
2019-03-19T23:37:41.984Z,11.10
2019-03-19T23:40:11.498Z,11.10
2019-03-19T23:42:40.844Z,10.83
2019-03-19T23:45:10.717Z,11.87
2019-03-19T23:47:40.293Z,11.30
2019-03-19T23:50:10.950Z,12.07
2019-03-19T23:52:40.287Z,11.93
2019-03-19T23:55:10.168Z,12.17
2019-03-19T23:57:39.706Z,11.57
